Flight Track Log - Related Links

Times and Time Zones

All times are in EDT time to prevent confusion due to time zone crossing. See the VH-KIB flight status page for this flight to view local times or setup timezone preferences in your user account.

Time Position Orientation Groundspeed Altitude Reporting Facility
EDT Latitude Longitude Course Direction KTS MPH feet Rate Location/Type
Fri 07:14:16 PM -39.8116 143.9260 15° North 9,000  Level Aus ATC (Calculated)
Fri 07:14:51 PM -39.8116 143.9260 15° North 9,000 -870 Level Aus ATC (Calculated)
Fri 07:16:51 PM -39.7341 143.9766 11° North 9,000 -957 Level Aus ATC (Calculated)
Fri 07:18:03 PM -39.6565 144.0270 North 9,000 -1,455 Level Aus ATC (Calculated)
Fri 07:18:07 PM -39.6565 144.0270 North 9,000 -2,113 Level Aus ATC (Calculated)
Fri 07:18:55 PM -39.6565 144.0270 North 9,000 -2,168 Level Aus ATC (Calculated)
Fri 07:20:42 PM -39.4400 144.0517 25° Northeast 163 188 3,400 -2,277 Descending Aus ATC (RADAR)
Fri 07:21:12 PM -39.4207 144.0635 26° Northeast 158 182 3,800 733 Climbing Aus ATC (RADAR)
Fri 07:22:12 PM -39.3819 144.0878 25° Northeast 157 181 4,500 655 Climbing Aus ATC (RADAR)
Fri 07:23:02 PM -39.3492 144.1077 29° Northeast 157 181 5,000 706 Climbing Aus ATC (RADAR)
Fri 07:23:37 PM -39.3275 144.1235 29° Northeast 150 173 5,500 675 Climbing Aus ATC (RADAR)
Fri 07:24:22 PM -39.2997 144.1431 27° Northeast 154 177 5,900 600 Climbing Aus ATC (RADAR)
Fri 07:24:57 PM -39.2771 144.1582 26° Northeast 158 182 6,300 600 Climbing Aus ATC (RADAR)
Fri 07:25:32 PM -39.2543 144.1726 27° Northeast 157 181 6,600 560 Climbing Aus ATC (RADAR)
Fri 07:26:12 PM -39.2270 144.1904 28° Northeast 167 192 7,000 400 Climbing Aus ATC (RADAR)
Fri 07:27:17 PM -39.1813 144.2222 26° Northeast 177 204 7,300  Climbing Aus ATC (RADAR)
Fri 07:28:02 PM -39.1450 144.2455 27° Northeast 195 224 7,000 -225 Descending Aus ATC (RADAR)
Fri 07:28:37 PM -39.1162 144.2646 26° Northeast 196 226 7,000 75 Level Aus ATC (RADAR)
Fri 07:29:22 PM -39.0808 144.2872 25° Northeast 191 220 7,100  Climbing Aus ATC (RADAR)
Fri 07:29:57 PM -39.0539 144.3036 30° Northeast 184 212 7,000 -87 Descending Aus ATC (RADAR)
Fri 07:30:31 PM -39.0276 144.3230 27° Northeast 188 216 7,000  Level Aus ATC (RADAR)
Fri 07:31:11 PM -38.9970 144.3430 29° Northeast 184 212 7,000  Level Aus ATC (RADAR)
Fri 07:31:41 PM -38.9742 144.3595 28° Northeast 188 216 7,000  Level Aus ATC (RADAR)
Fri 07:32:31 PM -38.9371 144.3854 29° Northeast 182 209 7,000  Level Aus ATC (RADAR)
Fri 07:33:31 PM -38.8933 144.4164 29° Northeast 182 209 7,000  Level Aus ATC (RADAR)
Fri 07:34:16 PM -38.8609 144.4394 28° Northeast 179 206 7,000  Level Aus ATC (RADAR)
Fri 07:34:51 PM -38.8358 144.4563 29° Northeast 176 203 7,000  Level Aus ATC (RADAR)
Fri 07:35:46 PM -38.7963 144.4846 29° Northeast 175 201 7,000  Level Aus ATC (RADAR)
Fri 07:36:36 PM -38.7602 144.5100 28° Northeast 176 203 7,000  Level Aus ATC (RADAR)
Fri 07:37:56 PM -38.7015 144.5496 30° Northeast 181 208 7,000  Level Aus ATC (RADAR)
Fri 07:38:56 PM -38.6583 144.5820 30° Northeast 181 208 7,000  Level Aus ATC (RADAR)
Fri 07:39:36 PM -38.6289 144.6036 30° Northeast 181 208 7,000  Level Aus ATC (RADAR)
Fri 07:40:11 PM -38.6036 144.6220 33° Northeast 181 208 7,000  Level Aus ATC (RADAR)
Fri 07:40:46 PM -38.5786 144.6424 31° Northeast 181 208 7,000  Level Aus ATC (RADAR)
Fri 07:41:26 PM -38.5508 144.6640 32° Northeast 177 204 7,000 -240 Level Aus ATC (RADAR)
Fri 07:42:01 PM -38.5249 144.6844 29° Northeast 190 219 6,700 -565 Descending Aus ATC (RADAR)
Fri 07:42:51 PM -38.4852 144.7126 32° Northeast 199 229 6,200 -545 Descending Aus ATC (RADAR)
Fri 07:43:51 PM -38.4367 144.7506 32° Northeast 206 237 5,700 -550 Descending Aus ATC (RADAR)
Fri 07:44:40 PM -38.3965 144.7822 28° Northeast 203 234 5,200 -607 Descending Aus ATC (RADAR)
Fri 07:45:20 PM -38.3634 144.8051 30° Northeast 205 236 4,800 -533 Descending Aus ATC (RADAR)
Fri 07:46:10 PM -38.3221 144.8358 31° Northeast 202 232 4,400 -571 Descending Aus ATC (RADAR)
Fri 07:47:05 PM -38.2767 144.8705 31° Northeast 206 237 3,800 -646 Descending Aus ATC (RADAR)
Fri 07:48:20 PM -38.2162 144.9161 32° Northeast 202 232 3,000 -624 Descending Aus ATC (RADAR)
Fri 07:49:10 PM -38.1767 144.9478 33° Northeast 202 232 2,500 -253 Descending Aus ATC (RADAR)
Fri 07:49:55 PM -38.1453 144.9734 29° Northeast 182 209 2,600 75 Climbing Aus ATC (RADAR)
Fri 07:50:30 PM -38.1208 144.9908 347° North 176 203 2,600 -257 Level Aus ATC (RADAR)
Fri 07:51:05 PM -38.0943 144.9828 337° Northwest 168 193 2,300 -600 Descending Aus ATC (RADAR)
Fri 07:51:40 PM -38.0683 144.9691 341° North 174 200 1,900 -686 Descending Aus ATC (RADAR)
Fri 07:52:15 PM -38.0415 144.9577 10° North 174 200 1,500 -533 Descending Aus ATC (RADAR)
Fri 07:53:10 PM -38.0021 144.9664 88° East 177 204 1,100 -261 Descending Aus ATC (RADAR)
Fri 07:54:10 PM -38.0008 145.0237 94° East 159 183 1,000 -53 Descending Aus ATC (RADAR)
Fri 07:55:04 PM -38.0034 145.0689 91° East 126 145 1,000 -270 Level Aus ATC (RADAR)
Fri 07:55:39 PM -38.0037 145.0930 11° North 113 130 600 -720 Descending Aus ATC (RADAR)
Fri 07:56:19 PM -37.9834 145.0981 11° North 104 120 100 -750 Descending Aus ATC (RADAR)

Login

Don't have an account? Register now (free) for customized features, flight alerts, and more!